Time;durP1;ratioP1;P1;durP2;ratioP2;P2;SDS_P1;SDS_P2;PMS_P1;PMS_P2;Temp;Humidity;BMP_temperature;BMP_pressure;BME280_temperature;BME280_humidity;BME280_pressure;Samples;Min_cycle;Max_cycle;Signal;HPM_P1;HPM_P2
2023/08/03 00:01:22;;;;;;;0.10;0.10;;;;;;;14.75;100.00;98843.00;5054363;28;20056;-47
2023/08/03 00:03:48;;;;;;;0.10;0.10;;;;;;;14.75;100.00;98847.34;5054815;28;20017;-48
2023/08/03 00:06:13;;;;;;;0.10;0.10;;;;;;;14.74;100.00;98841.28;5053960;28;20494;-50
2023/08/03 00:08:38;;;;;;;0.10;0.10;;;;;;;14.78;100.00;98848.16;5054316;28;20532;-51
2023/08/03 00:11:03;;;;;;;0.10;0.10;;;;;;;14.77;100.00;98846.44;5054930;28;20540;-50
2023/08/03 00:13:29;;;;;;;0.10;0.10;;;;;;;14.79;100.00;98847.25;5053541;28;20040;-51
2023/08/03 00:15:54;;;;;;;0.10;0.10;;;;;;;14.82;100.00;98838.53;5054407;28;20025;-50
2023/08/03 00:18:19;;;;;;;0.10;0.10;;;;;;;14.82;100.00;98854.09;5054108;28;20029;-49
2023/08/03 00:20:47;;;;;;;0.10;0.10;;;;;;;14.82;100.00;98849.78;5053758;28;20103;-48
2023/08/03 00:23:13;;;;;;;0.10;0.10;;;;;;;14.83;100.00;98855.81;5054377;28;20044;-49
2023/08/03 00:25:38;;;;;;;0.10;0.10;;;;;;;14.86;100.00;98857.50;5053189;28;20060;-51
2023/08/03 00:28:04;;;;;;;0.10;0.10;;;;;;;14.87;100.00;98857.47;5054176;28;20017;-50
2023/08/03 00:30:29;;;;;;;0.10;0.10;;;;;;;14.89;100.00;98863.50;5053738;28;20051;-49
2023/08/03 00:32:54;;;;;;;0.10;0.10;;;;;;;14.92;100.00;98865.16;5053319;28;20029;-51
2023/08/03 00:35:20;;;;;;;0.10;0.10;;;;;;;14.93;100.00;98866.88;5054262;28;20032;-49
2023/08/03 00:37:45;;;;;;;0.10;0.10;;;;;;;14.95;100.00;98875.47;5053860;28;20032;-50
2023/08/03 00:40:10;;;;;;;0.10;0.10;;;;;;;14.96;100.00;98880.66;5053113;28;20024;-50
2023/08/03 00:42:36;;;;;;;0.10;0.10;;;;;;;14.97;100.00;98889.28;5053683;28;20032;-49
2023/08/03 00:45:03;;;;;;;0.10;0.10;;;;;;;14.99;100.00;98903.09;5053701;28;20603;-50
2023/08/03 00:47:28;;;;;;;0.10;0.10;;;;;;;15.00;100.00;98904.75;5052660;28;20480;-49
2023/08/03 00:49:53;;;;;;;0.10;0.10;;;;;;;14.99;100.00;98913.47;5053874;28;20036;-49
2023/08/03 00:52:20;;;;;;;0.10;0.10;;;;;;;15.01;100.00;98913.41;5053829;28;20105;-50
2023/08/03 00:54:45;;;;;;;0.10;0.10;;;;;;;15.02;100.00;98928.09;5052697;28;20089;-49
2023/08/03 00:57:10;;;;;;;0.10;0.10;;;;;;;15.02;100.00;98918.56;5053687;28;20470;-51
2023/08/03 00:59:36;;;;;;;0.10;0.10;;;;;;;15.03;100.00;98925.47;5053206;28;20465;-49
2023/08/03 01:02:01;;;;;;;0.10;0.10;;;;;;;15.03;100.00;98930.66;5052941;28;20045;-50
2023/08/03 01:04:27;;;;;;;0.10;0.10;;;;;;;15.05;100.00;98936.66;5053403;28;20028;-50
2023/08/03 01:06:52;;;;;;;0.10;0.10;;;;;;;15.05;100.00;98944.44;5053581;28;20025;-50
2023/08/03 01:09:17;;;;;;;0.10;0.10;;;;;;;15.06;100.00;98946.16;5052694;28;20033;-50
2023/08/03 01:11:43;;;;;;;0.10;0.10;;;;;;;15.05;100.00;98957.41;5053102;28;20029;-51
2023/08/03 01:14:09;;;;;;;0.10;0.10;;;;;;;15.05;100.00;98953.97;5053427;28;20025;-50
2023/08/03 01:16:34;;;;;;;0.10;0.10;;;;;;;15.03;100.00;98961.78;5052404;28;20116;-50
2023/08/03 01:19:00;;;;;;;0.10;0.10;;;;;;;15.03;100.00;98958.31;5053100;28;20017;-50
2023/08/03 01:21:26;;;;;;;0.10;0.10;;;;;;;15.02;100.00;98954.06;5052938;28;20032;-49
2023/08/03 01:23:52;;;;;;;0.10;0.10;;;;;;;15.01;100.00;98958.38;5052433;28;20021;-50
2023/08/03 01:26:18;;;;;;;0.10;0.10;;;;;;;14.99;100.00;98975.72;5053114;28;20307;-49
2023/08/03 01:28:43;;;;;;;0.10;0.10;;;;;;;15.01;100.00;98967.91;5051966;28;20033;-50
2023/08/03 01:31:09;;;;;;;0.10;0.10;;;;;;;15.01;100.00;98996.44;5053172;28;20037;-50
2023/08/03 01:33:34;;;;;;;0.10;0.10;;;;;;;15.00;100.00;98985.19;5052850;28;20028;-52
2023/08/03 01:36:00;;;;;;;0.10;0.10;;;;;;;15.01;100.00;98986.91;5052350;28;20389;-53
2023/08/03 01:38:25;;;;;;;0.10;0.10;;;;;;;15.02;100.00;98990.38;5052682;28;20039;-51
2023/08/03 01:40:50;;;;;;;0.10;0.10;;;;;;;15.03;100.00;98986.88;5052922;28;20037;-52
2023/08/03 01:43:16;;;;;;;0.10;0.10;;;;;;;15.05;100.00;98993.72;5051866;28;20041;-51
2023/08/03 01:45:41;;;;;;;0.08;0.08;;;;;;;15.06;100.00;98984.22;5051981;28;20037;-52
2023/08/03 01:48:06;;;;;;;0.10;0.10;;;;;;;15.06;100.00;98979.03;5053036;28;20017;-52
2023/08/03 01:50:32;;;;;;;0.10;0.10;;;;;;;15.06;100.00;98989.41;5051901;28;20056;-52
2023/08/03 01:52:57;;;;;;;0.10;0.10;;;;;;;15.06;100.00;98998.06;5052826;28;20457;-51
2023/08/03 01:55:22;;;;;;;0.10;0.10;;;;;;;15.07;100.00;98997.16;5052526;28;20025;-48
2023/08/03 01:57:47;;;;;;;0.10;0.10;;;;;;;15.06;100.00;98992.84;5051915;28;20385;-52
2023/08/03 02:00:13;;;;;;;0.10;0.10;;;;;;;15.06;100.00;98995.44;5052516;28;20025;-52
2023/08/03 02:02:38;;;;;;;0.10;0.10;;;;;;;15.03;100.00;98987.75;5052561;28;20033;-51
2023/08/03 02:05:06;;;;;;;0.10;0.10;;;;;;;15.03;100.00;98992.06;5052022;28;20048;-51
2023/08/03 02:07:53;;;;;;;0.13;0.13;;;;;;;15.03;100.00;98998.13;5052443;28;20056;-52
2023/08/03 02:10:19;;;;;;;0.10;0.10;;;;;;;15.02;100.00;98995.56;5052615;28;20108;-52
2023/08/03 02:12:44;;;;;;;0.10;0.10;;;;;;;15.00;100.00;98987.78;5051378;28;20117;-52
2023/08/03 02:15:10;;;;;;;0.10;0.10;;;;;;;15.00;100.00;98995.56;5052545;28;20029;-52
2023/08/03 02:17:35;;;;;;;0.10;0.10;;;;;;;15.00;100.00;98990.38;5052462;28;20039;-52
2023/08/03 02:20:00;;;;;;;0.05;0.05;;;;;;;15.00;100.00;98998.16;5051695;28;20472;-52
2023/08/03 02:22:26;;;;;;;0.10;0.10;;;;;;;15.01;100.00;98994.69;5052176;28;20040;-52
2023/08/03 02:24:51;;;;;;;0.10;0.10;;;;;;;15.00;100.00;98992.97;5052458;28;20033;-49
2023/08/03 02:27:17;;;;;;;0.13;0.13;;;;;;;15.00;100.00;98992.13;5051847;28;20104;-51
2023/08/03 02:29:42;;;;;;;0.10;0.10;;;;;;;15.00;100.00;98986.94;5052259;28;20041;-51
2023/08/03 02:32:07;;;;;;;0.20;0.20;;;;;;;14.98;100.00;98999.94;5051757;28;20029;-53
2023/08/03 02:34:33;;;;;;;0.28;0.20;;;;;;;14.98;100.00;98990.41;5052000;28;20029;-51
2023/08/03 02:36:58;;;;;;;0.10;0.10;;;;;;;14.97;100.00;98990.44;5052364;28;20028;-52
2023/08/03 02:39:23;;;;;;;0.10;0.10;;;;;;;14.96;100.00;98994.78;5051276;28;20028;-51
2023/08/03 02:41:49;;;;;;;0.10;0.10;;;;;;;14.95;100.00;98987.88;5052320;28;20095;-51
2023/08/03 02:44:14;;;;;;;0.20;0.20;;;;;;;14.96;100.00;98975.75;5052217;28;20056;-52
2023/08/03 02:46:40;;;;;;;0.10;0.10;;;;;;;14.96;100.00;98984.41;5051086;28;20413;-52
2023/08/03 02:49:05;;;;;;;0.10;0.10;;;;;;;14.94;100.00;98977.53;5052336;28;20099;-51
2023/08/03 02:51:31;;;;;;;0.10;0.10;;;;;;;14.94;100.00;98978.38;5052009;28;20428;-51
2023/08/03 02:53:56;;;;;;;0.10;0.10;;;;;;;14.93;100.00;98981.84;5051401;28;20090;-51
2023/08/03 02:56:21;;;;;;;0.10;0.10;;;;;;;14.93;100.00;98991.38;5052723;28;20024;-51
2023/08/03 02:58:47;;;;;;;0.10;0.10;;;;;;;14.92;100.00;98977.53;5055769;28;20464;-52
2023/08/03 03:01:12;;;;;;;0.17;0.17;;;;;;;14.92;100.00;98984.47;5054978;28;20120;-52
2023/08/03 03:03:37;;;;;;;0.20;0.20;;;;;;;14.93;100.00;98986.19;5055651;28;20116;-53
2023/08/03 03:06:02;;;;;;;0.10;0.10;;;;;;;14.90;100.00;98997.47;5055873;28;20029;-51
2023/08/03 03:08:28;;;;;;;0.20;0.20;;;;;;;14.92;100.00;98992.25;5054590;28;20431;-52
2023/08/03 03:10:53;;;;;;;0.10;0.10;;;;;;;14.91;100.00;98993.13;5055689;28;20025;-52
2023/08/03 03:13:19;;;;;;;0.10;0.10;;;;;;;14.90;100.00;99014.75;5055595;28;20351;-52
2023/08/03 03:15:44;;;;;;;0.10;0.10;;;;;;;14.89;100.00;99006.13;5054603;28;20465;-51
2023/08/03 03:18:09;;;;;;;0.20;0.20;;;;;;;14.89;100.00;99018.28;5055457;28;20017;-52
2023/08/03 03:20:34;;;;;;;0.10;0.10;;;;;;;14.89;100.00;99015.66;5054985;28;20032;-50
2023/08/03 03:23:00;;;;;;;0.20;0.20;;;;;;;14.89;100.00;99018.28;5054671;28;20024;-50
2023/08/03 03:25:25;;;;;;;0.20;0.20;;;;;;;14.87;100.00;99023.47;5054951;28;20021;-50
2023/08/03 03:27:50;;;;;;;0.10;0.10;;;;;;;14.88;100.00;99019.16;5055595;28;20036;-52
2023/08/03 03:30:16;;;;;;;0.10;0.10;;;;;;;14.86;100.00;99028.69;5054730;28;20108;-51
2023/08/03 03:32:42;;;;;;;0.10;0.10;;;;;;;14.85;100.00;99034.75;5054850;28;20564;-53
2023/08/03 03:35:08;;;;;;;0.10;0.10;;;;;;;14.82;100.00;99033.94;5055314;28;20033;-52
2023/08/03 03:37:33;;;;;;;0.10;0.10;;;;;;;14.81;100.00;99042.59;5054076;28;20025;-52
2023/08/03 03:39:58;;;;;;;0.10;0.10;;;;;;;14.81;100.00;99044.34;5055022;28;20029;-52
2023/08/03 03:42:24;;;;;;;0.10;0.10;;;;;;;14.79;100.00;99054.72;5053929;28;20103;-48
2023/08/03 03:44:49;;;;;;;0.10;0.10;;;;;;;14.78;100.00;99053.03;5054882;28;20037;-52
2023/08/03 03:47:14;;;;;;;0.10;0.10;;;;;;;14.77;100.00;99069.47;5055142;28;20020;-52
2023/08/03 03:49:39;;;;;;;0.10;0.10;;;;;;;14.78;100.00;99076.34;5053891;28;20025;-52
2023/08/03 03:52:05;;;;;;;0.10;0.10;;;;;;;14.77;100.00;99068.56;5054886;28;20060;-51
2023/08/03 03:54:30;;;;;;;0.10;0.10;;;;;;;14.78;100.00;99081.53;5054556;28;20029;-51
2023/08/03 03:56:57;;;;;;;0.10;0.10;;;;;;;14.77;100.00;99074.63;5054048;28;20112;-52
2023/08/03 03:59:23;;;;;;;0.10;0.10;;;;;;;14.77;100.00;99074.63;5054575;28;20025;-51
2023/08/03 04:01:48;;;;;;;0.10;0.10;;;;;;;14.77;100.00;99089.31;5054846;28;20032;-52
2023/08/03 04:04:13;;;;;;;0.10;0.10;;;;;;;14.78;100.00;99088.44;5054052;28;20076;-51
2023/08/03 04:06:39;;;;;;;0.10;0.10;;;;;;;14.78;100.00;99091.03;5054273;28;20025;-49
2023/08/03 04:09:04;;;;;;;0.20;0.20;;;;;;;14.78;100.00;99097.09;5054033;28;20158;-52
2023/08/03 04:11:29;;;;;;;0.10;0.10;;;;;;;14.77;100.00;99092.78;5053314;28;20389;-52
2023/08/03 04:13:55;;;;;;;0.10;0.10;;;;;;;14.75;100.00;99110.09;5054415;28;20033;-52
2023/08/03 04:16:20;;;;;;;0.10;0.10;;;;;;;14.77;100.00;99104.88;5054511;28;20028;-52
2023/08/03 04:18:45;;;;;;;0.10;0.10;;;;;;;14.75;100.00;99115.28;5053307;28;20033;-51
2023/08/03 04:21:11;;;;;;;0.10;0.10;;;;;;;14.77;100.00;99121.31;5054236;28;20473;-52
2023/08/03 04:23:36;;;;;;;0.10;0.10;;;;;;;14.77;100.00;99121.31;5053983;28;20040;-52
2023/08/03 04:26:02;;;;;;;0.10;0.10;;;;;;;14.79;100.00;99135.09;5053440;28;20035;-52
2023/08/03 04:28:27;;;;;;;0.10;0.10;;;;;;;14.79;100.00;99132.50;5054068;28;20037;-47
2023/08/03 04:30:52;;;;;;;0.10;0.10;;;;;;;14.78;100.00;99138.59;5054333;28;20100;-52
2023/08/03 04:33:18;;;;;;;0.10;0.10;;;;;;;14.79;100.00;99140.28;5053200;28;20384;-50
2023/08/03 04:35:43;;;;;;;0.10;0.10;;;;;;;14.79;100.00;99142.88;5053795;28;20021;-50
2023/08/03 04:38:08;;;;;;;0.10;0.10;;;;;;;14.80;100.00;99156.72;5053945;28;20052;-49
2023/08/03 04:40:35;;;;;;;0.10;0.10;;;;;;;14.80;100.00;99146.34;5052640;28;20037;-51
2023/08/03 04:43:01;;;;;;;0.03;0.03;;;;;;;14.81;100.00;99145.47;5053673;28;20520;-47
2023/08/03 04:45:26;;;;;;;0.10;0.10;;;;;;;14.80;100.00;99151.53;5053727;28;20104;-52
2023/08/03 04:47:51;;;;;;;0.10;0.10;;;;;;;14.82;100.00;99158.41;5053116;28;20389;-52
2023/08/03 04:50:19;;;;;;;0.10;0.10;;;;;;;14.82;100.00;99163.59;5053885;28;20163;-48
2023/08/03 04:52:44;;;;;;;0.10;0.10;;;;;;;14.81;100.00;99158.44;5052691;28;20039;-50
2023/08/03 04:55:09;;;;;;;0.10;0.10;;;;;;;14.81;100.00;99161.88;5053558;28;20108;-50
2023/08/03 04:57:35;;;;;;;0.10;0.10;;;;;;;14.82;100.00;99163.59;5053446;28;20037;-52
2023/08/03 05:00:00;;;;;;;0.10;0.10;;;;;;;14.82;100.00;99161.00;5052866;28;20130;-51
2023/08/03 05:02:25;;;;;;;0.10;0.10;;;;;;;14.81;100.00;99167.06;5053308;28;20028;-48
2023/08/03 05:04:51;;;;;;;0.10;0.10;;;;;;;14.80;100.00;99172.28;5053415;28;20384;-51
2023/08/03 05:07:16;;;;;;;0.10;0.10;;;;;;;14.79;100.00;99181.78;5052787;28;20473;-49
2023/08/03 05:09:41;;;;;;;0.10;0.10;;;;;;;14.77;100.00;99182.69;5053073;28;20075;-48
2023/08/03 05:12:07;;;;;;;0.10;0.10;;;;;;;14.81;100.00;99185.22;5053248;28;20075;-52
2023/08/03 05:14:32;;;;;;;0.10;0.10;;;;;;;14.80;100.00;99203.41;5052188;28;20029;-49
2023/08/03 05:16:57;;;;;;;0.10;0.10;;;;;;;14.79;100.00;99191.31;5053390;28;20025;-52
2023/08/03 05:19:23;;;;;;;0.10;0.10;;;;;;;14.82;100.00;99192.13;5052098;28;20087;-50
2023/08/03 05:21:48;;;;;;;0.10;0.10;;;;;;;14.81;100.00;99200.78;5052485;28;20111;-51
2023/08/03 05:24:13;;;;;;;0.10;0.10;;;;;;;14.82;100.00;99206.81;5052949;28;20025;-48
2023/08/03 05:26:38;;;;;;;0.10;0.10;;;;;;;14.81;100.00;99221.53;5052775;28;20104;-51
2023/08/03 05:29:04;;;;;;;0.10;0.10;;;;;;;14.82;100.00;99217.19;5052416;28;20112;-49
2023/08/03 05:31:29;;;;;;;0.10;0.10;;;;;;;14.84;100.00;99233.59;5052648;28;20028;-51
2023/08/03 05:33:55;;;;;;;0.10;0.10;;;;;;;14.81;100.00;99234.50;5053151;28;20096;-52
2023/08/03 05:36:20;;;;;;;0.17;0.17;;;;;;;14.78;100.00;99226.78;5052200;28;20376;-49
2023/08/03 05:38:46;;;;;;;0.10;0.10;;;;;;;14.80;100.00;99245.75;5052689;28;20111;-51
2023/08/03 05:41:16;;;;;;;0.10;0.10;;;;;;;14.82;100.00;99246.59;5053145;28;20025;-50
2023/08/03 05:43:41;;;;;;;0.20;0.20;;;;;;;14.85;100.00;99247.41;5051507;28;20392;-51
2023/08/03 05:46:12;;;;;;;0.10;0.10;;;;;;;14.87;100.00;99251.69;5052954;28;20028;-48
2023/08/03 05:48:37;;;;;;;0.10;0.10;;;;;;;14.89;100.00;99259.50;5052609;28;20028;-52
2023/08/03 05:51:02;;;;;;;0.10;0.10;;;;;;;14.92;100.00;99259.44;5052064;28;20025;-51
2023/08/03 05:53:28;;;;;;;0.10;0.10;;;;;;;14.95;100.00;99254.19;5052358;28;20029;-47
2023/08/03 05:55:53;;;;;;;0.10;0.10;;;;;;;14.97;100.00;99268.00;5052652;28;20029;-51
2023/08/03 05:58:19;;;;;;;0.10;0.10;;;;;;;14.98;100.00;99275.78;5052086;28;20021;-50
2023/08/03 06:00:48;;;;;;;0.10;0.10;;;;;;;14.99;100.00;99281.84;5052474;28;20388;-52
2023/08/03 06:03:16;;;;;;;0.10;0.10;;;;;;;14.96;100.00;99274.94;5052045;28;20025;-50
2023/08/03 06:05:46;;;;;;;0.10;0.10;;;;;;;14.96;100.00;99284.44;5052299;28;20029;-50
2023/08/03 06:08:16;;;;;;;0.20;0.20;;;;;;;14.95;100.00;99282.72;5052566;28;20021;-52
2023/08/03 06:10:43;;;;;;;0.10;0.10;;;;;;;15.01;100.00;99287.00;5051827;28;20033;-46
2023/08/03 06:13:11;;;;;;;0.10;0.10;;;;;;;15.01;100.00;99285.25;5052734;28;20035;-47
2023/08/03 06:15:36;;;;;;;0.10;0.10;;;;;;;15.05;100.00;99297.28;5052301;28;20029;-51
2023/08/03 06:18:04;;;;;;;0.10;0.10;;;;;;;15.07;100.00;99298.13;5051649;28;20029;-46
2023/08/03 06:20:29;;;;;;;0.10;0.10;;;;;;;15.09;100.00;99299.00;5052010;28;20032;-47
2023/08/03 06:22:55;;;;;;;0.10;0.10;;;;;;;15.14;100.00;99301.50;5052666;28;20025;-51
2023/08/03 06:25:22;;;;;;;0.10;0.10;;;;;;;15.10;100.00;99290.31;5051864;28;20021;-51
2023/08/03 06:27:48;;;;;;;0.10;0.10;;;;;;;15.13;100.00;99305.84;5052462;28;20021;-49
2023/08/03 06:30:14;;;;;;;0.10;0.10;;;;;;;15.14;100.00;99304.97;5052561;28;20453;-47
2023/08/03 06:32:40;;;;;;;0.10;0.10;;;;;;;15.21;100.00;99310.06;5055318;28;20029;-52
2023/08/03 06:35:42;;;;;;;0.10;0.10;;;;;;;15.29;100.00;99318.59;5056282;28;20047;-47
2023/08/03 06:38:09;;;;;;;0.10;0.10;;;;;;;15.31;100.00;99320.31;5055668;28;20041;-47
2023/08/03 06:40:36;;;;;;;0.10;0.10;;;;;;;15.36;100.00;99324.56;5055880;28;20020;-51
2023/08/03 06:43:02;;;;;;;0.10;0.10;;;;;;;15.45;100.00;99322.69;5056140;28;20036;-49
2023/08/03 06:45:31;;;;;;;0.10;0.10;;;;;;;15.68;100.00;99337.06;5055143;28;20068;-51
2023/08/03 06:47:58;;;;;;;0.10;0.10;;;;;;;15.58;100.00;99343.28;5056465;28;20047;-51
2023/08/03 06:50:24;;;;;;;0.10;0.10;;;;;;;15.60;100.00;99341.53;5055980;28;20029;-51
2023/08/03 06:52:50;;;;;;;0.10;0.10;;;;;;;15.65;100.00;99344.91;5055313;28;20052;-51
2023/08/03 06:55:16;;;;;;;0.10;0.10;;;;;;;15.62;100.00;99356.19;5055906;28;20021;-51
2023/08/03 06:57:42;;;;;;;0.10;0.10;;;;;;;15.60;100.00;99349.31;5055723;28;20379;-49
2023/08/03 07:00:08;;;;;;;0.10;0.10;;;;;;;15.60;100.00;99354.50;5054962;28;20112;-50
2023/08/03 07:02:34;;;;;;;0.10;0.10;;;;;;;15.64;100.00;99357.00;5055662;28;20108;-51
2023/08/03 07:04:59;;;;;;;0.10;0.10;;;;;;;15.65;100.00;99360.50;5055722;28;20473;-51
2023/08/03 07:07:25;;;;;;;0.10;0.10;;;;;;;15.61;100.00;99364.03;5054744;28;20056;-48
2023/08/03 07:09:50;;;;;;;0.10;0.10;;;;;;;15.63;100.00;99370.91;5055667;28;20032;-51
2023/08/03 07:12:16;;;;;;;0.10;0.10;;;;;;;15.80;100.00;99386.22;5055545;28;20480;-49
2023/08/03 07:14:41;;;;;;;0.10;0.10;;;;;;;15.83;100.00;99374.09;5054487;28;20507;-51
2023/08/03 07:17:07;;;;;;;0.10;0.10;;;;;;;15.97;100.00;99377.31;5055803;28;20021;-50
2023/08/03 07:19:33;;;;;;;0.10;0.10;;;;;;;16.05;100.00;99391.06;5055277;28;20537;-50
2023/08/03 07:21:58;;;;;;;0.00;0.00;;;;;;;16.01;100.00;99388.53;5054732;28;20028;-51
2023/08/03 07:24:23;;;;;;;0.10;0.10;;;;;;;15.97;100.00;99398.09;5055114;28;20056;-50
2023/08/03 07:26:49;;;;;;;0.10;0.10;;;;;;;15.89;100.00;99399.97;5055356;28;20159;-50
2023/08/03 07:29:15;;;;;;;0.10;0.10;;;;;;;15.87;100.00;99391.34;5054498;28;20025;-51
2023/08/03 07:31:40;;;;;;;0.10;0.10;;;;;;;15.79;100.00;99392.28;5054991;28;20033;-51
2023/08/03 07:34:05;;;;;;;0.10;0.10;;;;;;;15.84;100.00;99402.66;5055400;28;20028;-49
2023/08/03 07:36:31;;;;;;;0.10;0.10;;;;;;;15.79;100.00;99410.47;5054213;28;20385;-51
2023/08/03 07:38:56;;;;;;;0.10;0.10;;;;;;;15.76;100.00;99415.75;5055277;28;20088;-52
2023/08/03 07:41:21;;;;;;;0.10;0.10;;;;;;;15.76;100.00;99397.56;5055145;28;20373;-51
2023/08/03 07:43:47;;;;;;;0.10;0.10;;;;;;;15.84;100.00;99406.97;5052951;28;20401;-46
2023/08/03 07:46:13;;;;;;;0.15;0.15;;;;;;;15.92;100.00;99411.19;5055222;28;20045;-48
2023/08/03 07:48:38;;;;;;;0.10;0.10;;;;;;;15.95;100.00;99421.53;5053894;28;20130;-46
2023/08/03 07:51:14;;;;;;;0.10;0.10;;;;;;;15.92;100.00;99426.78;5055061;28;20021;-47
2023/08/03 07:53:40;;;;;;;0.10;0.10;;;;;;;15.79;100.00;99425.22;5054624;28;20107;-51
2023/08/03 07:56:15;;;;;;;0.10;0.10;;;;;;;15.76;100.00;99415.75;5054086;28;20155;-49
2023/08/03 07:58:40;;;;;;;0.10;0.10;;;;;;;15.73;100.00;99441.75;5054641;28;20029;-51
2023/08/03 08:01:06;;;;;;;0.05;0.05;;;;;;;15.63;100.00;99450.53;5054842;28;20380;-51
2023/08/03 08:03:31;;;;;;;0.10;0.10;;;;;;;15.65;100.00;99456.59;5053744;28;20053;-50
2023/08/03 08:06:07;;;;;;;0.10;0.10;;;;;;;15.63;100.00;99461.81;5054760;28;20029;-51
2023/08/03 08:08:32;;;;;;;0.10;0.10;;;;;;;15.61;100.00;99457.50;5054335;28;20033;-46
2023/08/03 08:10:58;;;;;;;0.10;0.10;;;;;;;15.61;100.00;99473.94;5053802;28;20033;-50
2023/08/03 08:13:23;;;;;;;0.10;0.10;;;;;;;15.59;100.00;99474.84;5054220;28;20104;-50
2023/08/03 08:15:48;;;;;;;0.10;0.10;;;;;;;15.62;100.00;99477.38;5054614;28;20083;-51
2023/08/03 08:18:14;;;;;;;0.10;0.10;;;;;;;15.62;100.00;99474.78;5053893;28;20064;-51
2023/08/03 08:20:39;;;;;;;0.10;0.10;;;;;;;15.67;100.00;99483.38;5054183;28;20381;-51
2023/08/03 08:23:05;;;;;;;0.10;0.10;;;;;;;15.65;100.00;99492.94;5054401;28;20098;-51
2023/08/03 08:25:35;;;;;;;0.10;0.10;;;;;;;15.69;100.00;99497.22;5053110;28;20013;-51
2023/08/03 08:28:01;;;;;;;0.05;0.05;;;;;;;15.77;100.00;99503.16;5054412;28;20037;-51
2023/08/03 08:30:26;;;;;;;0.10;0.10;;;;;;;15.76;100.00;99517.03;5053980;28;20040;-51
2023/08/03 08:32:54;;;;;;;0.10;0.10;;;;;;;15.71;100.00;99516.25;5053547;28;20025;-51
2023/08/03 08:35:19;;;;;;;0.10;0.10;;;;;;;15.72;100.00;99517.94;5054195;28;20100;-51
2023/08/03 08:37:45;;;;;;;0.10;0.10;;;;;;;15.72;100.00;99517.94;5053028;28;20103;-51
2023/08/03 08:40:13;;;;;;;0.10;0.10;;;;;;;15.74;100.00;99525.72;5053879;28;20040;-50
2023/08/03 08:42:39;;;;;;;0.10;0.10;;;;;;;15.73;100.00;99534.41;5053795;28;20043;-50
2023/08/03 08:45:05;;;;;;;0.10;0.10;;;;;;;15.73;100.00;99534.41;5052935;28;20455;-49
2023/08/03 08:47:31;;;;;;;0.10;0.10;;;;;;;15.73;100.00;99540.44;5053595;28;20017;-47
2023/08/03 08:49:56;;;;;;;0.10;0.10;;;;;;;15.76;100.00;99550.81;5053916;28;20047;-50
2023/08/03 08:52:25;;;;;;;0.05;0.05;;;;;;;15.71;100.00;99549.13;5052821;28;20079;-49
2023/08/03 08:54:50;;;;;;;0.10;0.10;;;;;;;15.68;100.00;99557.81;5053768;28;20032;-46
2023/08/03 08:57:16;;;;;;;0.10;0.10;;;;;;;15.67;100.00;99550.06;5053590;28;20029;-47
2023/08/03 09:00:02;;;;;;;0.10;0.10;;;;;;;15.79;100.00;99568.09;5052500;28;20430;-50
2023/08/03 09:02:27;;;;;;;0.10;0.10;;;;;;;15.85;100.00;99577.56;5053447;28;20025;-50
2023/08/03 09:04:53;;;;;;;0.08;0.08;;;;;;;15.94;100.00;99578.28;5053455;28;20124;-50
2023/08/03 09:07:18;;;;;;;0.10;0.10;;;;;;;16.09;100.00;99589.41;5052682;28;20033;-48
2023/08/03 09:09:43;;;;;;;0.10;0.10;;;;;;;16.13;100.00;99586.72;5053358;28;20033;-49
2023/08/03 09:12:22;;;;;;;0.00;0.00;;;;;;;16.18;100.00;99596.19;5053306;28;20056;-47
2023/08/03 09:14:52;;;;;;;0.10;0.10;;;;;;;16.19;100.00;99600.50;5052708;28;20036;-50
2023/08/03 09:17:18;;;;;;;0.10;0.10;;;;;;;16.19;100.00;99616.09;5053277;28;20403;-50
2023/08/03 09:19:45;;;;;;;0.10;0.10;;;;;;;16.17;100.00;99613.53;5052831;28;20025;-49
2023/08/03 09:22:11;;;;;;;0.10;0.10;;;;;;;16.26;100.00;99622.97;5052741;28;20017;-51
2023/08/03 09:24:36;;;;;;;0.00;0.00;;;;;;;16.39;100.00;99631.44;5052870;28;20024;-46
2023/08/03 09:27:02;;;;;;;0.10;0.10;;;;;;;16.37;100.00;99626.28;5052574;28;20021;-50
2023/08/03 09:29:30;;;;;;;0.10;0.10;;;;;;;16.54;100.00;99635.56;5052924;28;20029;-50
2023/08/03 09:32:03;;;;;;;0.10;0.10;;;;;;;16.72;100.00;99642.22;5053121;28;20020;-45
2023/08/03 09:34:39;;;;;;;0.10;0.10;;;;;;;16.84;100.00;99649.88;5052174;28;20044;-48
2023/08/03 09:37:06;;;;;;;0.10;0.10;;;;;;;16.94;100.00;99648.03;5053223;28;20024;-50
2023/08/03 09:39:34;;;;;;;0.10;0.10;;;;;;;17.30;100.00;99650.91;5052704;28;20041;-51
2023/08/03 09:42:06;;;;;;;0.10;0.10;;;;;;;17.52;100.00;99666.13;5052183;28;20028;-50
2023/08/03 09:44:36;;;;;;;0.10;0.10;;;;;;;17.65;100.00;99664.16;5052253;28;20045;-50
2023/08/03 09:47:03;;;;;;;0.10;0.10;;;;;;;17.65;100.00;99675.47;5052845;28;20035;-47
2023/08/03 09:49:32;;;;;;;0.10;0.10;;;;;;;17.69;100.00;99677.13;5051828;28;20027;-50
2023/08/03 09:52:03;;;;;;;0.10;0.10;;;;;;;17.63;100.00;99684.19;5052851;28;20028;-51
2023/08/03 09:54:40;;;;;;;0.10;0.10;;;;;;;17.63;100.00;99687.63;5052812;28;20114;-46
2023/08/03 09:57:09;;;;;;;0.10;0.10;;;;;;;17.59;100.00;99694.66;5051811;28;20044;-50
2023/08/03 09:59:36;;;;;;;0.10;0.10;;;;;;;17.43;100.00;99699.28;5052535;28;20453;-49
2023/08/03 10:02:05;;;;;;;0.00;0.00;;;;;;;17.28;100.00;99704.75;5052688;28;20384;-50
2023/08/03 10:04:36;;;;;;;0.10;0.10;;;;;;;17.35;100.00;99701.16;5051840;28;20101;-50
2023/08/03 10:07:06;;;;;;;0.10;0.10;;;;;;;17.41;100.00;99706.25;5058862;28;20025;-50
2023/08/03 10:09:38;;;;;;;0.10;0.10;;;;;;;17.41;100.00;99721.03;5058074;28;20475;-51
2023/08/03 10:12:07;;;;;;;0.10;0.10;;;;;;;17.40;100.00;99722.78;5059444;28;20105;-51
2023/08/03 10:14:40;;;;;;;0.10;0.10;;;;;;;17.36;100.00;99736.72;5058912;28;20025;-51
2023/08/03 10:17:07;;;;;;;0.10;0.10;;;;;;;17.41;100.00;99729.69;5058516;28;20021;-51
2023/08/03 10:19:33;;;;;;;;;;;;;;;17.51;100.00;99737.38;5059233;28;20043;-50
2023/08/03 10:21:58;;;;;;;0.10;0.10;;;;;;;17.26;100.00;99741.22;5059113;28;19991;-51
2023/08/03 10:24:24;;;;;;;0.10;0.10;;;;;;;17.23;100.00;99735.19;5057948;28;20063;-51
2023/08/03 10:26:54;;;;;;;0.10;0.10;;;;;;;17.20;100.00;99732.66;5059308;28;20460;-51
2023/08/03 10:29:51;;;;;;;0.10;0.10;;;;;;;17.42;100.00;99739.22;5059159;28;20421;-50
2023/08/03 10:32:22;;;;;;;;;;;;;;;17.66;100.00;99728.41;5058853;28;20100;-51
2023/08/03 10:34:48;;;;;;;0.10;0.10;;;;;;;17.67;100.00;99738.81;5059100;28;19935;-49
2023/08/03 10:37:14;;;;;;;0.10;0.10;;;;;;;17.78;100.00;99747.31;5059003;28;20021;-49
2023/08/03 10:39:56;;;;;;;0.10;0.10;;;;;;;17.94;100.00;99749.66;5057876;28;20473;-50
2023/08/03 10:42:23;;;;;;;0.10;0.10;;;;;;;17.71;100.00;99756.09;5059052;28;20465;-50
2023/08/03 10:44:48;;;;;;;0.10;0.10;;;;;;;17.59;100.00;99756.31;5058127;28;20045;-51
2023/08/03 10:47:30;;;;;;;0.10;0.10;;;;;;;17.66;100.00;99763.13;5059241;28;20029;-51
2023/08/03 10:49:58;;;;;;;0.00;0.00;;;;;;;17.92;100.00;99774.84;5059195;28;20029;-50
2023/08/03 10:52:29;;;;;;;0.10;0.10;;;;;;;18.37;100.00;99764.50;5058012;28;20028;-51
2023/08/03 10:54:59;;;;;;;0.10;0.10;;;;;;;18.94;100.00;99775.53;5058963;28;20049;-50
2023/08/03 10:57:28;;;;;;;0.10;0.10;;;;;;;18.89;100.00;99774.75;5058587;28;20049;-50
2023/08/03 10:59:59;;;;;;;0.00;0.00;;;;;;;19.64;100.00;99781.72;5058390;28;20033;-51
2023/08/03 11:02:30;;;;;;;0.00;0.00;;;;;;;20.27;100.00;99787.09;5058646;28;20028;-51
2023/08/03 11:04:59;;;;;;;0.00;0.00;;;;;;;20.65;100.00;99788.63;5058998;28;20025;-50
2023/08/03 11:07:35;;;;;;;0.00;0.00;;;;;;;20.54;100.00;99806.41;5057868;28;20028;-47
2023/08/03 11:10:02;;;;;;;0.00;0.00;;;;;;;19.86;100.00;99801.22;5058881;28;20060;-53
2023/08/03 11:12:27;;;;;;;0.00;0.00;;;;;;;19.20;100.00;99800.19;5058006;28;20476;-49
2023/08/03 11:14:55;;;;;;;0.00;0.00;;;;;;;18.62;100.00;99803.13;5058663;28;20063;-51
2023/08/03 11:17:23;;;;;;;0.00;0.00;;;;;;;18.33;100.00;99820.19;5056166;28;20056;-48
2023/08/03 11:19:48;;;;;;;0.10;0.10;;;;;;;18.24;100.00;99826.47;5054894;28;20454;-50
2023/08/03 11:22:14;;;;;;;0.00;0.00;;;;;;;18.15;100.00;99812.72;5055560;28;20063;-47
2023/08/03 11:24:42;;;;;;;0.00;0.00;;;;;;;18.25;100.00;99817.75;5055190;28;20043;-46